createdAt,value
2017-06-13T00:00:30.734Z,101910.73
2017-06-13T00:02:57.359Z,101910.38
2017-06-13T00:05:23.573Z,101908.13
2017-06-13T00:07:49.741Z,101907.65
2017-06-13T00:10:15.904Z,101905.00
2017-06-13T00:12:42.098Z,101908.61
2017-06-13T00:15:08.361Z,101907.22
2017-06-13T00:17:34.516Z,101907.65
2017-06-13T00:20:00.785Z,101907.69
2017-06-13T00:22:27.265Z,101912.25
2017-06-13T00:24:53.425Z,101907.78
2017-06-13T00:27:19.608Z,101913.17
2017-06-13T00:29:46.157Z,101922.59
2017-06-13T00:32:12.341Z,101918.16
2017-06-13T00:34:38.514Z,101919.08
2017-06-13T00:37:04.786Z,101920.90
2017-06-13T00:39:31.006Z,101921.42
2017-06-13T00:41:57.209Z,101920.94
2017-06-13T00:44:23.519Z,101923.25
2017-06-13T00:46:49.730Z,101922.86
2017-06-13T00:49:15.893Z,101919.73
2017-06-13T00:51:42.219Z,101923.81
2017-06-13T00:54:08.397Z,101922.03
2017-06-13T00:56:34.585Z,101922.95
2017-06-13T00:59:00.867Z,101925.64
2017-06-13T01:01:27.070Z,101919.86
2017-06-13T01:03:53.334Z,101920.34
2017-06-13T01:06:19.570Z,101921.25
2017-06-13T01:08:45.776Z,101923.08
2017-06-13T01:11:12.118Z,101922.64
2017-06-13T01:13:38.301Z,101917.27
2017-06-13T01:16:04.529Z,101922.69
2017-06-13T01:18:30.684Z,101923.17
2017-06-13T01:20:56.853Z,101931.67
2017-06-13T01:23:23.146Z,101923.60
2017-06-13T01:25:49.348Z,101924.99
2017-06-13T01:28:15.691Z,101915.14
2017-06-13T01:30:41.857Z,101921.39
2017-06-13T01:33:08.008Z,101916.48
2017-06-13T01:35:34.214Z,101919.17
2017-06-13T01:38:00.413Z,101918.30
2017-06-13T01:40:26.701Z,101920.56
2017-06-13T01:42:52.874Z,101912.94
2017-06-13T01:45:19.036Z,101912.50
2017-06-13T01:47:45.230Z,101908.98
2017-06-13T01:50:11.490Z,101907.59
2017-06-13T01:52:37.810Z,101904.95
2017-06-13T01:55:03.969Z,101905.38
2017-06-13T01:57:30.164Z,101905.91
2017-06-13T01:59:56.348Z,101913.11
2017-06-13T02:02:22.550Z,101905.03
2017-06-13T02:04:48.860Z,101907.34
2017-06-13T02:07:15.012Z,101914.98
2017-06-13T02:09:41.293Z,101912.24
2017-06-13T02:12:07.537Z,101909.59
2017-06-13T02:14:33.762Z,101910.08
2017-06-13T02:17:00.032Z,101917.28
2017-06-13T02:19:26.235Z,101907.95
2017-06-13T02:21:52.425Z,101917.37
2017-06-13T02:24:18.574Z,101916.50
2017-06-13T02:26:44.854Z,101914.28
2017-06-13T02:29:11.009Z,101905.34
2017-06-13T02:31:37.256Z,101900.44
2017-06-13T02:34:03.443Z,101906.30
2017-06-13T02:36:29.589Z,101905.05
2017-06-13T02:38:55.853Z,101904.52
2017-06-13T02:41:22.039Z,101899.62
2017-06-13T02:44:00.994Z,101908.60
2017-06-13T02:46:29.974Z,101905.61
2017-06-13T02:48:59.207Z,101903.83
2017-06-13T02:51:25.476Z,101900.70
2017-06-13T02:53:51.658Z,101899.84
2017-06-13T02:56:17.981Z,101906.56
2017-06-13T02:58:44.255Z,101912.86
2017-06-13T03:01:10.528Z,101911.03
2017-06-13T03:03:36.700Z,101917.41
2017-06-13T03:06:03.025Z,101916.50
2017-06-13T03:08:29.283Z,101919.72
2017-06-13T03:10:55.502Z,101921.45
2017-06-13T03:13:21.721Z,101918.84
2017-06-13T03:15:47.949Z,101916.55
2017-06-13T03:18:14.096Z,101920.63
2017-06-13T03:20:40.277Z,101924.19
2017-06-13T03:23:06.585Z,101923.84
2017-06-13T03:25:32.749Z,101926.05
2017-06-13T03:27:58.962Z,101922.02
2017-06-13T03:30:25.125Z,101921.54
2017-06-13T03:32:51.325Z,101921.58
2017-06-13T03:35:17.636Z,101922.06
2017-06-13T03:37:43.785Z,101925.27
2017-06-13T03:40:09.969Z,101924.41
2017-06-13T03:42:36.140Z,101928.01
2017-06-13T03:45:02.368Z,101927.53
2017-06-13T03:47:28.665Z,101933.74
2017-06-13T03:49:54.862Z,101932.53
2017-06-13T03:52:21.045Z,101931.14
2017-06-13T03:54:47.209Z,101933.44
2017-06-13T03:57:13.414Z,101934.39
2017-06-13T03:59:39.658Z,101941.20
2017-06-13T04:02:05.899Z,101946.76
2017-06-13T04:04:32.057Z,101952.61
2017-06-13T04:06:58.272Z,101954.95
2017-06-13T04:09:24.501Z,101955.44
2017-06-13T04:11:50.821Z,101961.33
2017-06-13T04:14:17.081Z,101969.48
2017-06-13T04:16:43.244Z,101970.83
2017-06-13T04:19:09.445Z,101965.02
2017-06-13T04:21:35.649Z,101964.93
2017-06-13T04:24:01.928Z,101963.98
2017-06-13T04:26:28.093Z,101960.03
2017-06-13T04:28:54.317Z,101963.62
2017-06-13T04:31:20.511Z,101961.64
2017-06-13T04:33:46.842Z,101965.71
2017-06-13T04:36:13.107Z,101967.45
2017-06-13T04:38:39.253Z,101969.27
2017-06-13T04:41:05.437Z,101972.83
2017-06-13T04:43:31.650Z,101971.96
2017-06-13T04:45:58.014Z,101966.63
2017-06-13T04:48:24.204Z,101974.26
2017-06-13T04:50:50.506Z,101978.77
2017-06-13T04:53:16.671Z,101981.85
2017-06-13T04:55:42.837Z,101980.50
2017-06-13T04:58:09.080Z,101982.80
2017-06-13T05:00:35.237Z,101991.30
2017-06-13T05:03:01.537Z,101989.44
2017-06-13T05:05:27.745Z,101992.56
2017-06-13T05:07:53.985Z,101993.44
2017-06-13T05:10:20.234Z,101997.78
2017-06-13T05:12:46.472Z,101996.48
2017-06-13T05:15:12.774Z,101985.63
2017-06-13T05:17:38.933Z,101984.29
2017-06-13T05:20:05.161Z,101983.50
2017-06-13T05:22:31.320Z,101986.23
2017-06-13T05:24:57.558Z,101992.53
2017-06-13T05:27:23.739Z,101997.34
2017-06-13T05:29:49.935Z,101998.16
2017-06-13T05:32:16.182Z,102001.86
2017-06-13T05:34:42.439Z,101998.77
2017-06-13T05:37:08.639Z,102002.29
2017-06-13T05:39:34.805Z,101994.22
2017-06-13T05:42:00.978Z,101991.91
2017-06-13T05:44:27.208Z,101997.25
2017-06-13T05:46:53.361Z,102007.02
2017-06-13T05:49:19.594Z,102000.89
2017-06-13T05:51:45.765Z,102000.89
2017-06-13T05:54:11.954Z,102000.91
2017-06-13T05:56:38.154Z,101999.20
2017-06-13T05:59:04.336Z,101994.27
2017-06-13T06:01:30.555Z,101998.59
2017-06-13T06:03:56.761Z,101995.34
2017-06-13T06:06:22.941Z,101989.09
2017-06-13T06:08:49.169Z,101989.14
2017-06-13T06:11:15.353Z,101992.58
2017-06-13T06:13:41.566Z,101994.19
2017-06-13T06:16:07.969Z,101997.25
2017-06-13T06:18:34.186Z,101996.87
2017-06-13T06:21:00.344Z,101992.70
2017-06-13T06:23:26.536Z,101989.45
2017-06-13T06:25:52.739Z,101994.35
2017-06-13T06:28:18.993Z,102002.34
2017-06-13T06:30:45.216Z,102014.41
2017-06-13T06:33:11.378Z,102009.89
2017-06-13T06:35:37.581Z,102004.95
2017-06-13T06:38:03.854Z,102007.28
2017-06-13T06:40:30.106Z,102009.11
2017-06-13T06:42:56.281Z,102015.70
2017-06-13T06:45:22.520Z,102022.31
2017-06-13T06:47:48.721Z,102019.36
2017-06-13T06:50:14.897Z,102010.73
2017-06-13T06:52:41.204Z,102012.08
2017-06-13T06:55:07.398Z,102020.63
2017-06-13T06:57:33.622Z,102023.36
2017-06-13T06:59:59.837Z,102030.34
2017-06-13T07:02:25.995Z,102027.09
2017-06-13T07:04:52.378Z,102022.97
2017-06-13T07:07:18.590Z,102026.09
2017-06-13T07:09:44.777Z,102033.17
2017-06-13T07:12:10.952Z,102025.84
2017-06-13T07:14:37.305Z,102013.64
2017-06-13T07:17:03.569Z,102015.34
2017-06-13T07:19:29.914Z,102012.13
2017-06-13T07:21:56.081Z,102009.39
2017-06-13T07:24:22.325Z,102008.44
2017-06-13T07:26:48.587Z,102012.09
2017-06-13T07:29:14.768Z,102012.52
2017-06-13T07:31:41.003Z,102013.91
2017-06-13T07:34:07.172Z,102011.70
2017-06-13T07:36:33.334Z,102013.47
2017-06-13T07:38:59.486Z,102017.03
2017-06-13T07:41:25.655Z,102017.38
2017-06-13T07:43:51.912Z,102030.32
2017-06-13T07:46:18.085Z,102028.38
2017-06-13T07:48:44.351Z,102022.47
2017-06-13T07:51:10.522Z,102012.99
2017-06-13T07:53:36.752Z,102010.69
2017-06-13T07:56:02.974Z,102017.34
2017-06-13T07:58:29.135Z,102023.94
2017-06-13T08:00:55.466Z,102026.23
2017-06-13T08:03:21.686Z,102024.41
2017-06-13T08:05:47.893Z,102022.16
2017-06-13T08:08:14.065Z,102018.12
2017-06-13T08:10:40.229Z,102019.38
2017-06-13T08:13:06.598Z,102013.52
2017-06-13T08:15:32.801Z,102026.06
2017-06-13T08:17:58.978Z,102013.99
2017-06-13T08:20:25.146Z,102014.86
2017-06-13T08:22:51.397Z,102014.30
2017-06-13T08:25:17.549Z,102018.20
2017-06-13T08:27:43.770Z,102019.08
2017-06-13T08:30:10.073Z,102020.34
2017-06-13T08:32:36.243Z,102014.47
2017-06-13T08:35:02.410Z,102021.64
2017-06-13T08:37:28.577Z,102024.80
2017-06-13T08:39:54.777Z,102022.98
2017-06-13T08:42:21.485Z,102030.15
2017-06-13T08:44:47.682Z,102028.28
2017-06-13T08:47:13.942Z,102026.55
2017-06-13T08:49:40.088Z,102017.90
2017-06-13T08:52:06.350Z,102025.55
2017-06-13T08:54:32.713Z,102026.45
2017-06-13T08:56:58.962Z,102023.24
2017-06-13T08:59:25.199Z,102027.72
2017-06-13T09:01:51.402Z,102027.23
2017-06-13T09:04:17.686Z,102023.63
2017-06-13T09:06:43.880Z,102020.90
2017-06-13T09:09:10.054Z,102026.80
2017-06-13T09:11:36.292Z,102024.98
2017-06-13T09:14:02.457Z,102019.03
2017-06-13T09:16:29.838Z,102025.61
2017-06-13T09:18:56.045Z,102021.83
2017-06-13T09:21:22.207Z,102025.39
2017-06-13T09:23:48.493Z,102024.91
2017-06-13T09:26:14.691Z,102030.64
2017-06-13T09:28:41.062Z,102032.38
2017-06-13T09:31:07.223Z,102024.05
2017-06-13T09:33:33.432Z,102023.66
2017-06-13T09:35:59.747Z,102017.01
2017-06-13T09:38:25.953Z,102024.56
2017-06-13T09:40:52.192Z,102017.97
2017-06-13T09:43:18.550Z,102013.49
2017-06-13T09:45:44.749Z,102016.63
2017-06-13T09:48:10.993Z,102028.31
2017-06-13T09:50:37.162Z,102033.99
2017-06-13T09:53:03.350Z,102028.52
2017-06-13T09:55:29.593Z,102035.64
2017-06-13T09:57:55.790Z,102024.00
2017-06-13T10:00:22.025Z,102036.16
2017-06-13T10:02:48.281Z,102035.73
2017-06-13T10:05:14.749Z,102033.03
2017-06-13T10:07:40.939Z,102045.11
2017-06-13T10:10:07.099Z,102058.66
2017-06-13T10:12:33.249Z,102055.53
2017-06-13T10:14:59.464Z,102059.76
2017-06-13T10:17:25.694Z,102059.80
2017-06-13T10:19:52.049Z,102059.27
2017-06-13T10:22:18.237Z,102056.38
2017-06-13T10:24:44.550Z,102055.37
2017-06-13T10:27:10.818Z,102049.72
2017-06-13T10:29:37.017Z,102058.01
2017-06-13T10:32:03.194Z,102052.76
2017-06-13T10:34:29.412Z,102052.37
2017-06-13T10:36:55.809Z,102051.97
2017-06-13T10:39:22.047Z,102053.42
2017-06-13T10:41:48.240Z,102049.80
2017-06-13T10:44:14.414Z,102060.87
2017-06-13T10:46:40.561Z,102068.48
2017-06-13T10:49:06.894Z,102070.78
2017-06-13T10:51:33.168Z,102071.17
2017-06-13T10:53:59.354Z,102061.31
2017-06-13T10:56:25.638Z,102062.66
2017-06-13T10:58:51.846Z,102068.30
2017-06-13T11:01:18.149Z,102070.39
2017-06-13T11:03:44.308Z,102070.00
2017-06-13T11:06:10.465Z,102066.78
2017-06-13T11:08:36.629Z,102067.22
2017-06-13T11:11:02.831Z,102064.66
2017-06-13T11:13:29.103Z,102065.35
2017-06-13T11:15:55.351Z,102069.83
2017-06-13T11:18:21.563Z,102067.66
2017-06-13T11:20:47.712Z,102067.95
2017-06-13T11:23:13.902Z,102068.83
2017-06-13T11:25:40.119Z,102075.00
2017-06-13T11:28:06.286Z,102066.77
2017-06-13T11:30:32.474Z,102065.86
2017-06-13T11:32:58.717Z,102074.33
2017-06-13T11:35:24.917Z,102064.38
2017-06-13T11:37:51.118Z,102064.25
2017-06-13T11:40:17.285Z,102072.28
2017-06-13T11:42:43.494Z,102074.33
2017-06-13T11:45:09.653Z,102067.69
2017-06-13T11:47:35.881Z,102066.20
2017-06-13T11:50:02.157Z,102074.59
2017-06-13T11:52:28.329Z,102070.51
2017-06-13T11:54:54.670Z,102068.29
2017-06-13T11:57:20.926Z,102063.69
2017-06-13T11:59:47.185Z,102055.52
2017-06-13T12:02:13.382Z,102057.73
2017-06-13T12:04:39.582Z,102065.77
2017-06-13T12:07:05.804Z,102058.55
2017-06-13T12:09:32.001Z,102055.77
2017-06-13T12:11:58.252Z,102053.98
2017-06-13T12:14:24.433Z,102053.91
2017-06-13T12:16:50.805Z,102056.03
2017-06-13T12:19:17.012Z,102059.63
2017-06-13T12:21:43.214Z,102057.46
2017-06-13T12:24:09.385Z,102059.68
2017-06-13T12:26:35.666Z,102053.72
2017-06-13T12:29:01.952Z,102060.50
2017-06-13T12:31:28.153Z,102055.11
2017-06-13T12:33:54.309Z,102052.81
2017-06-13T12:36:20.482Z,102057.03
2017-06-13T12:38:46.782Z,102052.16
2017-06-13T12:41:13.081Z,102049.03
2017-06-13T12:43:39.285Z,102053.52
2017-06-13T12:46:05.466Z,102051.38
2017-06-13T12:48:31.666Z,102046.91
2017-06-13T12:50:57.831Z,102043.78
2017-06-13T12:53:24.102Z,102045.17
2017-06-13T12:55:50.369Z,102043.30
2017-06-13T12:58:16.533Z,102050.77
2017-06-13T13:00:42.715Z,102057.85
2017-06-13T13:03:08.881Z,102053.33
2017-06-13T13:05:35.137Z,102054.55
2017-06-13T13:08:01.337Z,102057.77
2017-06-13T13:10:27.499Z,102047.42
2017-06-13T13:12:53.778Z,102052.81
2017-06-13T13:15:20.253Z,102057.81
2017-06-13T13:17:46.444Z,102050.25
2017-06-13T13:20:12.617Z,102058.20
2017-06-13T13:22:38.813Z,102060.41
2017-06-13T13:25:05.042Z,102055.89
2017-06-13T13:27:31.282Z,102052.28
2017-06-13T13:29:57.632Z,102058.06
2017-06-13T13:32:23.815Z,102058.06
2017-06-13T13:34:50.046Z,102051.72
2017-06-13T13:37:16.258Z,102054.52
2017-06-13T13:39:42.433Z,102052.73
2017-06-13T13:42:08.647Z,102051.04
2017-06-13T13:44:34.914Z,102052.73
2017-06-13T13:47:01.153Z,102048.88
2017-06-13T13:49:27.393Z,102043.63
2017-06-13T13:51:53.674Z,102042.88
2017-06-13T13:54:19.857Z,102050.00
2017-06-13T13:56:46.033Z,102048.78
2017-06-13T13:59:12.359Z,102048.64
2017-06-13T14:01:38.547Z,102038.96
2017-06-13T14:04:05.330Z,102049.81
2017-06-13T14:06:31.613Z,102054.02
2017-06-13T14:08:57.925Z,102049.05
2017-06-13T14:11:24.129Z,102056.00
2017-06-13T14:13:50.403Z,102056.39
2017-06-13T14:16:16.565Z,102058.40
2017-06-13T14:18:42.810Z,102064.17
2017-06-13T14:21:09.082Z,102064.52
2017-06-13T14:23:35.282Z,102066.26
2017-06-13T14:26:01.507Z,102064.52
2017-06-13T14:28:27.821Z,102063.30
2017-06-13T14:30:54.004Z,102063.98
2017-06-13T14:33:20.299Z,102068.51
2017-06-13T14:35:46.479Z,102072.55
2017-06-13T14:38:12.725Z,102070.50
2017-06-13T14:40:38.894Z,102071.16
2017-06-13T14:43:05.582Z,102073.33
2017-06-13T14:45:31.899Z,102064.34
2017-06-13T14:47:58.179Z,102060.03
2017-06-13T14:50:24.384Z,102067.69
2017-06-13T14:52:50.554Z,102067.89
2017-06-13T14:55:16.748Z,102056.97
2017-06-13T14:57:42.919Z,102061.97
2017-06-13T15:00:09.142Z,102051.86
2017-06-13T15:02:35.574Z,102068.00
2017-06-13T15:05:01.827Z,102065.11
2017-06-13T15:07:28.003Z,102070.78
2017-06-13T15:09:54.194Z,102072.42
2017-06-13T15:12:20.416Z,102074.07
2017-06-13T15:14:46.675Z,102067.31
2017-06-13T15:17:12.886Z,102073.16
2017-06-13T15:19:39.068Z,102066.80
2017-06-13T15:22:05.275Z,102068.88
2017-06-13T15:24:31.471Z,102065.52
2017-06-13T15:26:57.788Z,102070.03
2017-06-13T15:29:23.965Z,102070.46
2017-06-13T15:31:50.169Z,102071.99
2017-06-13T15:43:56.369Z,102063.44
2017-06-13T15:46:23.694Z,102062.42
2017-06-13T15:48:49.928Z,102058.73
2017-06-13T15:51:16.246Z,102063.66
2017-06-13T15:53:42.458Z,102058.94
2017-06-13T15:56:08.626Z,102059.52
2017-06-13T15:58:35.425Z,102060.34
2017-06-13T16:01:01.619Z,102054.92
2017-06-13T16:03:27.855Z,102052.66
2017-06-13T16:05:55.046Z,102045.16
2017-06-13T16:08:21.274Z,102048.87
2017-06-13T16:10:47.545Z,102060.95
2017-06-13T16:13:13.735Z,102059.08
2017-06-13T16:15:39.979Z,102053.50
2017-06-13T16:18:06.164Z,102054.13
2017-06-13T16:20:32.371Z,102058.88
2017-06-13T16:22:58.635Z,102058.31
2017-06-13T16:25:24.823Z,102064.59
2017-06-13T16:27:50.990Z,102061.95
2017-06-13T16:30:17.172Z,102062.38
2017-06-13T16:32:43.453Z,102058.04
2017-06-13T16:35:09.819Z,102051.63
2017-06-13T16:37:36.061Z,102058.17
2017-06-13T16:40:02.287Z,102051.28
2017-06-13T16:42:29.114Z,102047.23
2017-06-13T16:44:55.426Z,102047.33
2017-06-13T16:47:21.645Z,102048.20
2017-06-13T16:49:47.855Z,102044.49
2017-06-13T16:52:14.153Z,102040.26
2017-06-13T16:54:40.393Z,102037.99
2017-06-13T16:57:06.622Z,102039.87
2017-06-13T16:59:32.881Z,102037.85
2017-06-13T17:01:59.338Z,102047.63
2017-06-13T17:04:25.557Z,102044.16
2017-06-13T17:06:51.854Z,102038.48
2017-06-13T17:09:18.257Z,102045.47
2017-06-13T17:11:44.515Z,102043.16
2017-06-13T17:14:10.687Z,102038.58
2017-06-13T17:16:37.014Z,102039.92
2017-06-13T17:19:03.397Z,102038.05
2017-06-13T17:21:29.924Z,102039.44
2017-06-13T17:23:56.113Z,102034.34
2017-06-13T17:26:23.970Z,102043.69
2017-06-13T17:28:50.377Z,102038.44
2017-06-13T17:31:16.673Z,102038.00
2017-06-13T17:33:43.087Z,102036.62
2017-06-13T17:36:09.545Z,102037.03
2017-06-13T17:38:36.009Z,102040.45
2017-06-13T17:41:02.306Z,102036.57
2017-06-13T17:43:28.530Z,102034.20
2017-06-13T17:45:54.737Z,102040.70
2017-06-13T17:48:20.973Z,102039.49
2017-06-13T17:50:47.178Z,102043.97
2017-06-13T17:53:13.370Z,102042.14
2017-06-13T17:55:39.592Z,102038.44
2017-06-13T17:58:06.134Z,102041.97
2017-06-13T18:00:32.310Z,102038.38
2017-06-13T18:02:58.515Z,102038.85
2017-06-13T18:05:24.738Z,102034.80
2017-06-13T18:07:50.977Z,102032.72
2017-06-13T18:10:17.241Z,102030.88
2017-06-13T18:12:43.401Z,102039.61
2017-06-13T18:15:10.128Z,102041.48
2017-06-13T18:17:36.373Z,102045.20
2017-06-13T18:20:03.735Z,102035.03
2017-06-13T18:37:15.910Z,102037.91
2017-06-13T18:39:42.096Z,102034.14
2017-06-13T18:42:08.278Z,102035.30
2017-06-13T18:44:34.522Z,102040.49
2017-06-13T18:47:00.811Z,102035.43
2017-06-13T18:49:26.999Z,102040.55
2017-06-13T18:57:46.213Z,102038.59
2017-06-13T19:00:12.441Z,102030.98
2017-06-13T19:02:38.798Z,102040.99
2017-06-13T19:05:05.019Z,102041.22
2017-06-13T19:19:18.804Z,102032.34
2017-06-13T19:21:45.161Z,102033.39
2017-06-13T19:36:03.341Z,102044.55
2017-06-13T19:38:29.715Z,102036.51
2017-06-13T19:40:56.126Z,102041.08
2017-06-13T19:43:22.514Z,102048.77
2017-06-13T19:45:48.795Z,102053.86
2017-06-13T19:48:14.983Z,102059.87
2017-06-13T19:50:41.152Z,102064.44
2017-06-13T19:59:00.430Z,102061.44
2017-06-13T20:01:26.586Z,102057.00
2017-06-13T20:03:52.779Z,102070.09
2017-06-13T20:06:19.064Z,102074.61
2017-06-13T20:18:00.628Z,102082.70
2017-06-13T20:20:27.027Z,102089.01
2017-06-13T20:37:35.569Z,102091.05
2017-06-13T20:40:02.280Z,102088.41
2017-06-13T20:42:28.463Z,102077.19
2017-06-13T20:44:54.698Z,102068.20
2017-06-13T20:47:20.842Z,102062.41
2017-06-13T20:49:47.066Z,102060.63
2017-06-13T20:52:13.293Z,102057.98
2017-06-13T20:57:35.949Z,102070.20
2017-06-13T21:00:02.215Z,102065.77
2017-06-13T21:02:28.490Z,102065.33
2017-06-13T21:04:55.187Z,102067.59
2017-06-13T21:07:21.724Z,102064.08
2017-06-13T21:18:37.497Z,102086.75
2017-06-13T21:21:04.066Z,102082.76
2017-06-13T21:29:24.173Z,102092.75
2017-06-13T21:31:50.352Z,102103.13
2017-06-13T21:34:16.618Z,102092.36
2017-06-13T21:36:42.840Z,102101.39
2017-06-13T21:39:10.039Z,102108.58
2017-06-13T21:41:36.796Z,102112.18
2017-06-13T21:59:36.394Z,102111.14
2017-06-13T22:02:02.575Z,102115.17
2017-06-13T22:04:28.813Z,102115.66
2017-06-13T22:06:54.994Z,102110.27
2017-06-13T22:18:35.253Z,102118.87
2017-06-13T22:21:01.511Z,102118.91
2017-06-13T22:38:10.149Z,102124.38
2017-06-13T22:40:36.321Z,102123.99
2017-06-13T22:43:02.530Z,102125.34
2017-06-13T22:45:28.705Z,102127.16
2017-06-13T22:47:54.978Z,102128.47
2017-06-13T22:50:21.190Z,102127.55
2017-06-13T22:52:47.333Z,102122.69
2017-06-13T22:58:10.020Z,102127.29
2017-06-13T23:00:36.326Z,102115.09
2017-06-13T23:03:02.480Z,102126.81
2017-06-13T23:05:28.665Z,102116.47
2017-06-13T23:07:54.816Z,102124.52
2017-06-13T23:19:10.817Z,102131.28
2017-06-13T23:21:36.977Z,102138.50
2017-06-13T23:27:05.513Z,102136.32
2017-06-13T23:29:31.730Z,102130.06
2017-06-13T23:31:57.987Z,102131.45
2017-06-13T23:34:24.161Z,102130.11
2017-06-13T23:36:50.324Z,102118.05
2017-06-13T23:39:16.524Z,102114.00
2017-06-13T23:41:42.678Z,102103.23
2017-06-13T23:44:08.957Z,102107.75
2017-06-13T23:46:35.138Z,102104.19
2017-06-13T23:49:01.604Z,102104.63
2017-06-13T23:51:27.751Z,102100.15
2017-06-13T23:59:47.078Z,102102.02
